PWSweather.com
Personal Weather Stations
Station Observations
AS787
Cloppers Mill East, Germantown, MD 20874-2154

Cloppers Mill EastGermantown, MD 20874-2154

Lat: 39.1522, Lon: -77.2679

Elevation: 318

Station Type: 1-Wire

http://www.cloppermillweather.org/

High Low Average
Temperature 50.5°F10.3°C 30.9°F-0.6°C 37.7°F3.2°C
Dew Point 38.4°F3.6°C 29.9°F-1.2°C 32.5°F0.3°C
Winds 1.1 mph 1.8 kmh Calm Calm Calm SCalm S
Wind Gusts 5.0 mph8.0 kmh -- 1.0 mph1.6 kmh
Humidity 97% 48% 84%
Pressure 30.46 in1031.5 mb 30.00 in1015.9 mb -
Precipitation 0.00 in0.0 mm - -
Hour Temp Dew Point Humidity Winds Wind Gusts Pressure Precip Precip Rate Daily Precip Total
12:14 AM 33.0°F0.6°C 31.7°F-0.2°C 95% Calm Calm -- 30.00 in1015.9 mb 0.00 in0.0 mm 0.00 in0.0 mm 0.00 in0.0 mm
12:44 AM 33.1°F0.6°C 32.1°F0.1°C 96% Calm Calm -- 30.03 in1016.9 mb 0.00 in0.0 mm 0.00 in0.0 mm 0.00 in0.0 mm
01:14 AM 33.2°F0.7°C 32.2°F0.1°C 96% 0.1 mph S0.2 kmh S 2.0 mph3.2 kmh 30.03 in1016.9 mb 0.00 in0.0 mm 0.00 in0.0 mm 0.00 in0.0 mm
01:44 AM 33.1°F0.6°C 32.1°F0.1°C 96% Calm Calm 1.0 mph1.6 kmh 30.04 in1017.3 mb 0.00 in0.0 mm 0.00 in0.0 mm 0.00 in0.0 mm
02:14 AM 33.1°F0.6°C 32.1°F0.1°C 96% Calm Calm -- 30.04 in1017.3 mb 0.00 in0.0 mm 0.00 in0.0 mm 0.00 in0.0 mm
02:44 AM 33.1°F0.6°C 32.1°F0.1°C 96% Calm Calm -- 30.05 in1017.6 mb 0.00 in0.0 mm 0.00 in0.0 mm 0.00 in0.0 mm
03:14 AM 33.0°F0.6°C 32.0°F0.0°C 96% Calm Calm 1.0 mph1.6 kmh 30.06 in1017.9 mb 0.00 in0.0 mm 0.00 in0.0 mm 0.00 in0.0 mm
03:44 AM 32.9°F0.5°C 31.9°F-0.1°C 96% Calm Calm 2.0 mph3.2 kmh 30.08 in1018.6 mb 0.00 in0.0 mm 0.00 in0.0 mm 0.00 in0.0 mm
04:14 AM 32.7°F0.4°C 31.7°F-0.2°C 96% Calm Calm 1.0 mph1.6 kmh 30.10 in1019.3 mb 0.01 in0.3 mm 0.02 in0.5 mm 0.01 in0.3 mm
04:44 AM 32.5°F0.3°C 31.5°F-0.3°C 96% Calm Calm -- 30.12 in1020.0 mb 0.01 in0.3 mm 0.00 in0.0 mm 0.01 in0.3 mm
05:14 AM 32.5°F0.3°C 31.5°F-0.3°C 96% Calm Calm -- 30.15 in1021.0 mb 0.00 in0.0 mm 0.00 in0.0 mm 0.01 in0.3 mm
05:44 AM 32.1°F0.1°C 31.0°F-0.6°C 96% Calm Calm -- 30.16 in1021.3 mb 0.00 in0.0 mm 0.00 in0.0 mm 0.01 in0.3 mm
06:14 AM 31.4°F-0.3°C 30.4°F-0.9°C 96% Calm Calm -- 30.18 in1022.0 mb 0.00 in0.0 mm 0.00 in0.0 mm 0.01 in0.3 mm
06:44 AM 31.3°F-0.4°C 30.3°F-0.9°C 96% Calm Calm -- 30.20 in1022.7 mb 0.00 in0.0 mm 0.00 in0.0 mm 0.01 in0.3 mm
07:14 AM 30.9°F-0.6°C 29.9°F-1.2°C 96% Calm Calm -- 30.23 in1023.7 mb 0.00 in0.0 mm 0.00 in0.0 mm 0.01 in0.3 mm
07:44 AM 31.0°F-0.6°C 30.0°F-1.1°C 96% Calm Calm -- 30.26 in1024.7 mb 0.00 in0.0 mm 0.00 in0.0 mm 0.01 in0.3 mm
08:14 AM 32.1°F0.1°C 31.3°F-0.4°C 97% Calm Calm -- 30.29 in1025.7 mb 0.00 in0.0 mm 0.00 in0.0 mm 0.01 in0.3 mm
08:44 AM 33.2°F0.7°C 32.4°F0.2°C 97% Calm Calm -- 30.30 in1026.1 mb 0.00 in0.0 mm 0.00 in0.0 mm 0.01 in0.3 mm
09:14 AM 34.1°F1.2°C 33.3°F0.7°C 97% Calm Calm -- 30.32 in1026.8 mb 0.00 in0.0 mm 0.00 in0.0 mm 0.01 in0.3 mm
09:44 AM 34.5°F1.4°C 33.5°F0.8°C 96% Calm Calm 1.0 mph1.6 kmh 30.35 in1027.8 mb 0.00 in0.0 mm 0.00 in0.0 mm 0.01 in0.3 mm
10:14 AM 36.3°F2.4°C 35.4°F1.9°C 97% Calm Calm -- 30.36 in1028.1 mb 0.00 in0.0 mm 0.00 in0.0 mm 0.01 in0.3 mm
10:44 AM 38.0°F3.3°C 36.6°F2.6°C 95% Calm Calm -- 30.38 in1028.8 mb 0.01 in0.3 mm 0.02 in0.5 mm 0.02 in0.5 mm
11:14 AM 40.9°F4.9°C 37.3°F2.9°C 87% 0.1 mph SSW0.2 kmh SSW 1.0 mph1.6 kmh 30.39 in1029.1 mb 0.02 in0.5 mm 0.02 in0.5 mm 0.03 in0.8 mm
11:44 AM 43.9°F6.6°C 38.4°F3.6°C 81% Calm Calm -- 30.39 in1029.1 mb 0.15 in3.8 mm 0.26 in6.6 mm 0.16 in4.1 mm
12:14 PM 45.6°F7.6°C 37.5°F3.1°C 73% 0.3 mph S0.5 kmh S 4.0 mph6.4 kmh 30.40 in1029.5 mb 0.05 in1.3 mm 0.00 in0.0 mm 0.16 in4.1 mm
12:44 PM 46.9°F8.3°C 37.2°F2.9°C 69% Calm Calm 3.0 mph4.8 kmh 30.39 in1029.1 mb 0.14 in3.6 mm 0.18 in4.6 mm 0.25 in6.4 mm
01:14 PM 47.2°F8.4°C 36.1°F2.3°C 65% 1.1 mph S1.8 kmh S 5.0 mph8.0 kmh 30.39 in1029.1 mb 0.04 in1.0 mm 0.00 in0.0 mm 0.25 in6.4 mm
01:44 PM 47.6°F8.7°C 34.4°F1.3°C 60% 0.8 mph S1.3 kmh S 4.0 mph6.4 kmh 30.38 in1028.8 mb 0.09 in2.3 mm 0.10 in2.5 mm 0.30 in7.6 mm
02:14 PM 49.7°F9.8°C 35.1°F1.7°C 57% Calm Calm 3.0 mph4.8 kmh 30.37 in1028.4 mb 0.01 in0.3 mm 0.00 in0.0 mm 0.30 in7.6 mm
02:44 PM 50.0°F10.0°C 33.5°F0.8°C 53% Calm Calm 5.0 mph8.0 kmh 30.37 in1028.4 mb 0.03 in0.8 mm 0.04 in1.0 mm 0.32 in8.1 mm
03:14 PM 50.4°F10.2°C 33.2°F0.7°C 51% 0.0 mph 0.0 kmh 2.0 mph3.2 kmh 30.38 in1028.8 mb 0.00 in0.0 mm 0.00 in0.0 mm 0.32 in8.1 mm
03:44 PM 50.5°F10.3°C 33.0°F0.6°C 51% 0.4 mph SSW0.6 kmh SSW 2.0 mph3.2 kmh 30.39 in1029.1 mb 0.00 in0.0 mm 0.00 in0.0 mm 0.32 in8.1 mm
04:14 PM 49.4°F9.7°C 32.6°F0.3°C 52% Calm Calm 1.0 mph1.6 kmh 30.39 in1029.1 mb 0.00 in0.0 mm 0.00 in0.0 mm 0.32 in8.1 mm
04:44 PM 50.4°F10.2°C 31.8°F-0.1°C 49% Calm Calm 1.0 mph1.6 kmh 30.39 in1029.1 mb 0.00 in0.0 mm 0.00 in0.0 mm 0.32 in8.1 mm
05:14 PM 50.3°F10.2°C 31.7°F-0.2°C 48% 0.0 mph SW0.0 kmh SW 1.0 mph1.6 kmh 30.40 in1029.5 mb 0.00 in0.0 mm 0.00 in0.0 mm 0.32 in8.1 mm
05:44 PM 45.2°F7.3°C 32.6°F0.3°C 61% Calm Calm -- 30.40 in1029.5 mb 0.00 in0.0 mm 0.00 in0.0 mm 0.32 in8.1 mm
06:14 PM 41.3°F5.2°C 32.3°F0.2°C 70% Calm Calm -- 30.41 in1029.8 mb 0.00 in0.0 mm 0.00 in0.0 mm 0.32 in8.1 mm
06:44 PM 38.3°F3.5°C 32.4°F0.2°C 79% Calm Calm -- 30.41 in1029.8 mb 0.00 in0.0 mm 0.00 in0.0 mm 0.32 in8.1 mm
07:14 PM 36.1°F2.3°C 31.7°F-0.2°C 84% Calm Calm -- 30.41 in1029.8 mb 0.00 in0.0 mm 0.00 in0.0 mm 0.32 in8.1 mm
07:44 PM 34.4°F1.3°C 30.9°F-0.6°C 87% Calm Calm -- 30.41 in1029.8 mb 0.00 in0.0 mm 0.00 in0.0 mm 0.32 in8.1 mm
08:14 PM 33.5°F0.8°C 30.6°F-0.8°C 89% Calm Calm -- 30.41 in1029.8 mb 0.00 in0.0 mm 0.00 in0.0 mm 0.32 in8.1 mm
08:44 PM 32.8°F0.4°C 30.2°F-1.0°C 90% Calm Calm -- 30.43 in1030.5 mb 0.00 in0.0 mm 0.00 in0.0 mm 0.32 in8.1 mm
09:14 PM 32.6°F0.3°C 30.5°F-0.8°C 92% Calm Calm -- 30.43 in1030.5 mb 0.00 in0.0 mm 0.00 in0.0 mm 0.32 in8.1 mm
09:44 PM 32.3°F0.2°C 30.3°F-0.9°C 92% Calm Calm -- 30.46 in1031.5 mb 0.00 in0.0 mm 0.00 in0.0 mm 0.32 in8.1 mm
10:14 PM 32.5°F0.3°C 30.7°F-0.7°C 93% Calm Calm -- 30.45 in1031.2 mb 0.00 in0.0 mm 0.00 in0.0 mm 0.32 in8.1 mm
10:44 PM 32.6°F0.3°C 30.8°F-0.7°C 93% Calm Calm -- 30.46 in1031.5 mb 0.00 in0.0 mm 0.00 in0.0 mm 0.32 in8.1 mm
11:14 PM 32.6°F0.3°C 30.9°F-0.6°C 93% Calm Calm -- 30.46 in1031.5 mb 0.00 in0.0 mm 0.00 in0.0 mm 0.32 in8.1 mm
11:44 PM 33.0°F0.6°C 31.2°F-0.4°C 93% Calm Calm -- 30.45 in1031.2 mb 0.00 in0.0 mm 0.00 in0.0 mm 0.32 in8.1 mm